sensor_id;sensor_type;location;lat;lon;timestamp;temperature;humidity
758;DHT22;363;48.764;9.172;2023-05-25T00:02:00;12.40;91.90
758;DHT22;363;48.764;9.172;2023-05-25T00:04:29;12.20;92.00
758;DHT22;363;48.764;9.172;2023-05-25T00:06:55;12.40;92.70
758;DHT22;363;48.764;9.172;2023-05-25T00:09:20;12.30;92.30
758;DHT22;363;48.764;9.172;2023-05-25T00:11:46;12.70;92.60
758;DHT22;363;48.764;9.172;2023-05-25T00:14:12;12.70;92.60
758;DHT22;363;48.764;9.172;2023-05-25T00:16:37;12.10;92.70
758;DHT22;363;48.764;9.172;2023-05-25T00:19:05;12.40;92.70
758;DHT22;363;48.764;9.172;2023-05-25T00:21:32;12.30;92.80
758;DHT22;363;48.764;9.172;2023-05-25T00:24:04;12.50;92.90
758;DHT22;363;48.764;9.172;2023-05-25T00:26:30;12.30;92.80
758;DHT22;363;48.764;9.172;2023-05-25T00:28:56;12.20;92.90
758;DHT22;363;48.764;9.172;2023-05-25T00:31:21;12.40;92.50
758;DHT22;363;48.764;9.172;2023-05-25T00:33:47;12.30;92.70
758;DHT22;363;48.764;9.172;2023-05-25T00:36:14;12.10;92.50
758;DHT22;363;48.764;9.172;2023-05-25T00:38:40;12.60;92.70
758;DHT22;363;48.764;9.172;2023-05-25T00:41:05;12.50;92.60
758;DHT22;363;48.764;9.172;2023-05-25T00:43:31;12.70;92.80
758;DHT22;363;48.764;9.172;2023-05-25T00:45:57;12.60;92.80
758;DHT22;363;48.764;9.172;2023-05-25T00:48:24;12.90;92.60
758;DHT22;363;48.764;9.172;2023-05-25T00:50:53;13.10;92.40
758;DHT22;363;48.764;9.172;2023-05-25T00:53:19;12.70;92.20
758;DHT22;363;48.764;9.172;2023-05-25T00:55:52;13.00;92.60
758;DHT22;363;48.764;9.172;2023-05-25T00:58:20;12.40;92.60
758;DHT22;363;48.764;9.172;2023-05-25T01:00:46;12.40;92.90
758;DHT22;363;48.764;9.172;2023-05-25T01:03:14;12.40;92.80
758;DHT22;363;48.764;9.172;2023-05-25T01:05:47;12.20;92.90
758;DHT22;363;48.764;9.172;2023-05-25T01:08:15;12.40;93.40
758;DHT22;363;48.764;9.172;2023-05-25T01:10:42;12.10;93.40
758;DHT22;363;48.764;9.172;2023-05-25T01:13:09;12.40;93.70
758;DHT22;363;48.764;9.172;2023-05-25T01:15:37;12.40;93.50
758;DHT22;363;48.764;9.172;2023-05-25T01:18:04;12.50;93.70
758;DHT22;363;48.764;9.172;2023-05-25T01:20:29;12.30;93.70
758;DHT22;363;48.764;9.172;2023-05-25T01:23:09;12.40;93.50
758;DHT22;363;48.764;9.172;2023-05-25T01:25:39;12.50;93.70
758;DHT22;363;48.764;9.172;2023-05-25T01:28:10;12.20;93.80
758;DHT22;363;48.764;9.172;2023-05-25T01:30:39;12.20;93.90
758;DHT22;363;48.764;9.172;2023-05-25T01:33:06;12.10;93.80
758;DHT22;363;48.764;9.172;2023-05-25T01:35:33;12.40;93.90
758;DHT22;363;48.764;9.172;2023-05-25T01:37:59;12.40;94.20
758;DHT22;363;48.764;9.172;2023-05-25T01:40:26;12.40;94.60
758;DHT22;363;48.764;9.172;2023-05-25T01:42:51;12.10;94.80
758;DHT22;363;48.764;9.172;2023-05-25T01:45:17;11.90;95.10
758;DHT22;363;48.764;9.172;2023-05-25T01:50:41;11.70;95.20
758;DHT22;363;48.764;9.172;2023-05-25T01:53:29;11.90;95.40
758;DHT22;363;48.764;9.172;2023-05-25T01:56:02;11.90;95.50
758;DHT22;363;48.764;9.172;2023-05-25T01:58:33;11.30;95.60
758;DHT22;363;48.764;9.172;2023-05-25T02:01:00;11.40;96.50
758;DHT22;363;48.764;9.172;2023-05-25T02:03:25;11.10;96.90
758;DHT22;363;48.764;9.172;2023-05-25T02:05:51;11.60;97.40
758;DHT22;363;48.764;9.172;2023-05-25T02:08:18;11.20;98.30
758;DHT22;363;48.764;9.172;2023-05-25T02:10:45;11.60;98.70
758;DHT22;363;48.764;9.172;2023-05-25T02:13:10;11.30;98.50
758;DHT22;363;48.764;9.172;2023-05-25T02:15:36;11.30;98.60
758;DHT22;363;48.764;9.172;2023-05-25T02:18:01;11.50;98.60
758;DHT22;363;48.764;9.172;2023-05-25T02:20:27;11.10;98.30
758;DHT22;363;48.764;9.172;2023-05-25T02:22:53;10.90;98.40
758;DHT22;363;48.764;9.172;2023-05-25T02:25:18;11.20;98.80
758;DHT22;363;48.764;9.172;2023-05-25T02:27:44;10.70;98.90
758;DHT22;363;48.764;9.172;2023-05-25T02:30:10;10.70;99.40
758;DHT22;363;48.764;9.172;2023-05-25T02:32:35;10.50;99.80
758;DHT22;363;48.764;9.172;2023-05-25T02:35:01;10.40;99.90
758;DHT22;363;48.764;9.172;2023-05-25T02:37:27;10.30;99.90
758;DHT22;363;48.764;9.172;2023-05-25T02:39:53;10.60;99.90
758;DHT22;363;48.764;9.172;2023-05-25T02:42:18;10.60;99.90
758;DHT22;363;48.764;9.172;2023-05-25T02:44:44;10.10;99.90
758;DHT22;363;48.764;9.172;2023-05-25T02:47:16;10.90;99.90
758;DHT22;363;48.764;9.172;2023-05-25T02:49:43;10.70;99.90
758;DHT22;363;48.764;9.172;2023-05-25T02:52:08;10.60;99.90
758;DHT22;363;48.764;9.172;2023-05-25T02:54:34;10.50;99.90
758;DHT22;363;48.764;9.172;2023-05-25T02:57:01;10.80;99.90
758;DHT22;363;48.764;9.172;2023-05-25T02:59:27;10.60;99.90
758;DHT22;363;48.764;9.172;2023-05-25T03:01:53;10.30;99.90
758;DHT22;363;48.764;9.172;2023-05-25T03:04:19;10.40;99.90
758;DHT22;363;48.764;9.172;2023-05-25T03:06:44;10.40;99.90
758;DHT22;363;48.764;9.172;2023-05-25T03:09:10;10.20;99.90
758;DHT22;363;48.764;9.172;2023-05-25T03:11:36;10.00;99.90
758;DHT22;363;48.764;9.172;2023-05-25T03:14:01;10.20;99.90
758;DHT22;363;48.764;9.172;2023-05-25T03:16:27;10.10;99.90
758;DHT22;363;48.764;9.172;2023-05-25T03:18:52;10.00;99.90
758;DHT22;363;48.764;9.172;2023-05-25T03:21:18;10.00;99.90
758;DHT22;363;48.764;9.172;2023-05-25T03:23:43;10.40;99.90
758;DHT22;363;48.764;9.172;2023-05-25T03:26:09;10.10;99.90
758;DHT22;363;48.764;9.172;2023-05-25T03:28:35;9.80;99.90
758;DHT22;363;48.764;9.172;2023-05-25T03:31:00;10.00;99.90
758;DHT22;363;48.764;9.172;2023-05-25T03:33:26;9.90;99.90
758;DHT22;363;48.764;9.172;2023-05-25T03:35:51;10.50;99.90
758;DHT22;363;48.764;9.172;2023-05-25T03:38:17;10.30;99.90
758;DHT22;363;48.764;9.172;2023-05-25T03:40:42;10.40;99.90
758;DHT22;363;48.764;9.172;2023-05-25T03:43:08;10.10;99.90
758;DHT22;363;48.764;9.172;2023-05-25T03:45:33;10.20;99.90
758;DHT22;363;48.764;9.172;2023-05-25T03:47:59;9.90;99.90
758;DHT22;363;48.764;9.172;2023-05-25T03:50:24;9.70;99.90
758;DHT22;363;48.764;9.172;2023-05-25T03:52:50;10.00;99.90
758;DHT22;363;48.764;9.172;2023-05-25T03:55:15;9.70;99.90
758;DHT22;363;48.764;9.172;2023-05-25T03:57:41;9.90;99.90
758;DHT22;363;48.764;9.172;2023-05-25T04:00:07;10.00;99.90
758;DHT22;363;48.764;9.172;2023-05-25T04:02:33;9.80;99.90
758;DHT22;363;48.764;9.172;2023-05-25T04:04:59;10.10;99.90
758;DHT22;363;48.764;9.172;2023-05-25T04:07:25;10.40;99.90
758;DHT22;363;48.764;9.172;2023-05-25T04:09:52;10.10;99.90
758;DHT22;363;48.764;9.172;2023-05-25T04:12:17;10.10;99.90
758;DHT22;363;48.764;9.172;2023-05-25T04:14:43;10.10;99.90
758;DHT22;363;48.764;9.172;2023-05-25T04:17:08;9.90;99.90
758;DHT22;363;48.764;9.172;2023-05-25T04:19:34;10.10;99.90
758;DHT22;363;48.764;9.172;2023-05-25T04:22:00;10.50;99.90
758;DHT22;363;48.764;9.172;2023-05-25T04:24:25;10.10;99.90
758;DHT22;363;48.764;9.172;2023-05-25T04:26:51;10.00;99.90
758;DHT22;363;48.764;9.172;2023-05-25T04:29:17;10.10;99.90
758;DHT22;363;48.764;9.172;2023-05-25T04:31:43;10.30;99.90
758;DHT22;363;48.764;9.172;2023-05-25T04:34:10;10.20;99.90
758;DHT22;363;48.764;9.172;2023-05-25T04:36:36;10.20;99.90
758;DHT22;363;48.764;9.172;2023-05-25T04:39:03;10.50;99.90
758;DHT22;363;48.764;9.172;2023-05-25T04:41:31;10.60;99.90
758;DHT22;363;48.764;9.172;2023-05-25T04:43:58;11.00;99.90
758;DHT22;363;48.764;9.172;2023-05-25T04:46:23;10.20;99.90
758;DHT22;363;48.764;9.172;2023-05-25T04:48:49;10.70;99.90
758;DHT22;363;48.764;9.172;2023-05-25T04:51:15;10.90;99.90
758;DHT22;363;48.764;9.172;2023-05-25T04:53:40;11.00;99.90
758;DHT22;363;48.764;9.172;2023-05-25T04:56:06;11.40;99.90
758;DHT22;363;48.764;9.172;2023-05-25T04:58:32;11.10;99.90
758;DHT22;363;48.764;9.172;2023-05-25T05:00:58;11.00;99.90
758;DHT22;363;48.764;9.172;2023-05-25T05:03:23;11.20;99.90
758;DHT22;363;48.764;9.172;2023-05-25T05:05:50;11.80;99.90
758;DHT22;363;48.764;9.172;2023-05-25T05:08:15;11.70;99.70
758;DHT22;363;48.764;9.172;2023-05-25T05:10:41;11.80;99.30
758;DHT22;363;48.764;9.172;2023-05-25T05:13:06;12.10;98.90
758;DHT22;363;48.764;9.172;2023-05-25T05:15:32;12.00;98.60
758;DHT22;363;48.764;9.172;2023-05-25T05:17:58;11.90;98.30
758;DHT22;363;48.764;9.172;2023-05-25T05:20:24;12.10;98.00
758;DHT22;363;48.764;9.172;2023-05-25T05:22:49;12.00;97.80
758;DHT22;363;48.764;9.172;2023-05-25T05:25:15;12.40;98.00
758;DHT22;363;48.764;9.172;2023-05-25T05:27:41;12.20;97.50
758;DHT22;363;48.764;9.172;2023-05-25T05:30:07;12.70;97.60
758;DHT22;363;48.764;9.172;2023-05-25T05:32:32;12.40;97.00
758;DHT22;363;48.764;9.172;2023-05-25T05:34:59;12.40;97.00
758;DHT22;363;48.764;9.172;2023-05-25T05:37:25;12.70;97.30
758;DHT22;363;48.764;9.172;2023-05-25T05:39:50;13.00;97.30
758;DHT22;363;48.764;9.172;2023-05-25T05:42:17;12.90;97.20
758;DHT22;363;48.764;9.172;2023-05-25T05:44:43;13.10;97.20
758;DHT22;363;48.764;9.172;2023-05-25T05:47:08;12.90;96.70
758;DHT22;363;48.764;9.172;2023-05-25T05:49:34;12.70;96.40
758;DHT22;363;48.764;9.172;2023-05-25T05:51:59;13.30;96.30
758;DHT22;363;48.764;9.172;2023-05-25T05:54:25;13.30;96.50
758;DHT22;363;48.764;9.172;2023-05-25T05:56:52;13.50;96.70
758;DHT22;363;48.764;9.172;2023-05-25T05:59:17;12.90;96.90
758;DHT22;363;48.764;9.172;2023-05-25T06:01:43;13.60;96.80
758;DHT22;363;48.764;9.172;2023-05-25T06:04:08;13.00;96.00
758;DHT22;363;48.764;9.172;2023-05-25T06:06:34;13.30;95.30
758;DHT22;363;48.764;9.172;2023-05-25T06:09:00;13.20;95.30
758;DHT22;363;48.764;9.172;2023-05-25T06:11:28;13.40;95.50
758;DHT22;363;48.764;9.172;2023-05-25T06:13:53;13.50;95.00
758;DHT22;363;48.764;9.172;2023-05-25T06:16:19;13.50;94.90
758;DHT22;363;48.764;9.172;2023-05-25T06:18:44;13.80;95.30
758;DHT22;363;48.764;9.172;2023-05-25T06:21:10;13.30;94.40
758;DHT22;363;48.764;9.172;2023-05-25T06:23:36;14.10;95.10
758;DHT22;363;48.764;9.172;2023-05-25T06:26:05;14.40;94.80
758;DHT22;363;48.764;9.172;2023-05-25T06:28:30;14.00;94.30
758;DHT22;363;48.764;9.172;2023-05-25T06:30:56;14.80;94.50
758;DHT22;363;48.764;9.172;2023-05-25T06:33:22;14.50;94.40
758;DHT22;363;48.764;9.172;2023-05-25T06:35:48;14.80;94.10
758;DHT22;363;48.764;9.172;2023-05-25T06:38:14;14.90;93.70
758;DHT22;363;48.764;9.172;2023-05-25T06:40:39;15.50;94.20
758;DHT22;363;48.764;9.172;2023-05-25T06:43:05;14.40;93.60
758;DHT22;363;48.764;9.172;2023-05-25T06:45:32;14.60;93.40
758;DHT22;363;48.764;9.172;2023-05-25T06:47:58;15.10;93.40
758;DHT22;363;48.764;9.172;2023-05-25T06:50:23;14.60;93.10
758;DHT22;363;48.764;9.172;2023-05-25T06:52:49;15.40;93.30
758;DHT22;363;48.764;9.172;2023-05-25T06:55:15;15.70;92.80
758;DHT22;363;48.764;9.172;2023-05-25T06:57:41;15.50;92.60
758;DHT22;363;48.764;9.172;2023-05-25T07:00:08;15.60;92.60
758;DHT22;363;48.764;9.172;2023-05-25T07:02:36;16.00;92.30
758;DHT22;363;48.764;9.172;2023-05-25T07:05:02;16.20;92.30
758;DHT22;363;48.764;9.172;2023-05-25T07:07:30;16.40;91.40
758;DHT22;363;48.764;9.172;2023-05-25T07:09:55;16.90;91.40
758;DHT22;363;48.764;9.172;2023-05-25T07:12:21;16.90;91.60
758;DHT22;363;48.764;9.172;2023-05-25T07:14:47;16.50;91.20
758;DHT22;363;48.764;9.172;2023-05-25T07:17:13;16.30;91.30
758;DHT22;363;48.764;9.172;2023-05-25T07:19:39;16.70;91.30
758;DHT22;363;48.764;9.172;2023-05-25T07:22:07;15.80;92.10
758;DHT22;363;48.764;9.172;2023-05-25T07:24:34;15.90;92.20
758;DHT22;363;48.764;9.172;2023-05-25T07:26:59;15.90;92.70
758;DHT22;363;48.764;9.172;2023-05-25T07:29:26;16.00;92.40
758;DHT22;363;48.764;9.172;2023-05-25T07:31:51;16.30;92.80
758;DHT22;363;48.764;9.172;2023-05-25T07:34:17;15.80;92.90
758;DHT22;363;48.764;9.172;2023-05-25T07:36:42;15.60;92.70
758;DHT22;363;48.764;9.172;2023-05-25T07:39:08;15.90;93.50
758;DHT22;363;48.764;9.172;2023-05-25T07:41:35;15.70;93.20
758;DHT22;363;48.764;9.172;2023-05-25T07:44:01;16.10;93.30
758;DHT22;363;48.764;9.172;2023-05-25T07:46:26;16.40;92.90
758;DHT22;363;48.764;9.172;2023-05-25T07:48:52;16.60;92.90
758;DHT22;363;48.764;9.172;2023-05-25T07:51:19;16.60;92.20
758;DHT22;363;48.764;9.172;2023-05-25T07:53:47;16.60;92.40
758;DHT22;363;48.764;9.172;2023-05-25T07:56:13;16.80;92.30
758;DHT22;363;48.764;9.172;2023-05-25T07:58:38;16.70;92.50
758;DHT22;363;48.764;9.172;2023-05-25T08:01:04;17.00;92.00
758;DHT22;363;48.764;9.172;2023-05-25T08:03:29;17.40;91.60
758;DHT22;363;48.764;9.172;2023-05-25T08:05:55;18.10;90.50
758;DHT22;363;48.764;9.172;2023-05-25T08:08:20;19.20;89.00
758;DHT22;363;48.764;9.172;2023-05-25T08:10:46;20.30;84.20
758;DHT22;363;48.764;9.172;2023-05-25T08:13:12;21.90;79.50
758;DHT22;363;48.764;9.172;2023-05-25T08:15:37;22.10;76.40
758;DHT22;363;48.764;9.172;2023-05-25T08:18:03;22.80;74.60
758;DHT22;363;48.764;9.172;2023-05-25T08:20:29;23.40;72.40
758;DHT22;363;48.764;9.172;2023-05-25T08:22:54;24.50;69.70
758;DHT22;363;48.764;9.172;2023-05-25T08:25:20;25.80;67.00
758;DHT22;363;48.764;9.172;2023-05-25T08:27:46;26.50;63.20
758;DHT22;363;48.764;9.172;2023-05-25T08:30:12;27.10;60.60
758;DHT22;363;48.764;9.172;2023-05-25T08:32:38;25.90;60.80
758;DHT22;363;48.764;9.172;2023-05-25T08:35:04;27.00;59.80
758;DHT22;363;48.764;9.172;2023-05-25T08:37:31;26.20;59.90
758;DHT22;363;48.764;9.172;2023-05-25T08:39:56;27.60;57.80
758;DHT22;363;48.764;9.172;2023-05-25T08:42:25;28.40;55.50
758;DHT22;363;48.764;9.172;2023-05-25T08:44:50;28.20;54.60
758;DHT22;363;48.764;9.172;2023-05-25T08:47:16;26.50;55.70
758;DHT22;363;48.764;9.172;2023-05-25T08:49:44;25.60;59.10
758;DHT22;363;48.764;9.172;2023-05-25T08:52:13;27.80;61.30
758;DHT22;363;48.764;9.172;2023-05-25T08:54:42;24.90;59.80
758;DHT22;363;48.764;9.172;2023-05-25T08:57:19;24.10;63.50
758;DHT22;363;48.764;9.172;2023-05-25T09:00:05;24.00;65.10
758;DHT22;363;48.764;9.172;2023-05-25T09:03:14;24.40;63.70
758;DHT22;363;48.764;9.172;2023-05-25T09:05:42;25.50;60.60
758;DHT22;363;48.764;9.172;2023-05-25T09:08:08;25.60;59.60
758;DHT22;363;48.764;9.172;2023-05-25T09:10:35;27.00;59.20
758;DHT22;363;48.764;9.172;2023-05-25T09:13:01;26.20;58.60
758;DHT22;363;48.764;9.172;2023-05-25T09:15:27;26.40;58.30
758;DHT22;363;48.764;9.172;2023-05-25T09:17:52;26.60;57.60
758;DHT22;363;48.764;9.172;2023-05-25T09:20:18;27.20;57.20
758;DHT22;363;48.764;9.172;2023-05-25T09:22:45;27.30;56.60
758;DHT22;363;48.764;9.172;2023-05-25T09:25:12;27.20;57.70
758;DHT22;363;48.764;9.172;2023-05-25T09:27:40;27.90;57.20
758;DHT22;363;48.764;9.172;2023-05-25T09:30:06;28.60;54.50
758;DHT22;363;48.764;9.172;2023-05-25T09:32:32;28.90;53.60
758;DHT22;363;48.764;9.172;2023-05-25T09:35:14;30.00;52.50
758;DHT22;363;48.764;9.172;2023-05-25T09:37:41;29.30;51.80
758;DHT22;363;48.764;9.172;2023-05-25T09:40:07;28.80;52.40
758;DHT22;363;48.764;9.172;2023-05-25T09:42:37;27.60;54.10
758;DHT22;363;48.764;9.172;2023-05-25T09:45:03;25.80;56.70
758;DHT22;363;48.764;9.172;2023-05-25T09:47:29;25.20;58.50
758;DHT22;363;48.764;9.172;2023-05-25T09:49:55;24.50;59.90
758;DHT22;363;48.764;9.172;2023-05-25T09:52:21;24.40;61.30
758;DHT22;363;48.764;9.172;2023-05-25T09:54:48;23.80;63.40
758;DHT22;363;48.764;9.172;2023-05-25T09:57:15;23.20;63.40
758;DHT22;363;48.764;9.172;2023-05-25T09:59:41;23.50;64.70
758;DHT22;363;48.764;9.172;2023-05-25T10:02:07;23.40;65.10
758;DHT22;363;48.764;9.172;2023-05-25T10:04:33;23.90;65.30
758;DHT22;363;48.764;9.172;2023-05-25T10:07:00;24.30;63.50
758;DHT22;363;48.764;9.172;2023-05-25T10:09:28;25.90;60.20
758;DHT22;363;48.764;9.172;2023-05-25T10:11:56;26.90;58.50
758;DHT22;363;48.764;9.172;2023-05-25T10:14:29;28.40;57.00
758;DHT22;363;48.764;9.172;2023-05-25T10:16:57;27.70;55.50
758;DHT22;363;48.764;9.172;2023-05-25T10:19:37;26.90;56.80
758;DHT22;363;48.764;9.172;2023-05-25T10:27:40;25.00;61.80
758;DHT22;363;48.764;9.172;2023-05-25T10:30:08;24.90;63.30
758;DHT22;363;48.764;9.172;2023-05-25T10:32:36;24.10;63.40
758;DHT22;363;48.764;9.172;2023-05-25T10:35:04;24.20;63.80
758;DHT22;363;48.764;9.172;2023-05-25T10:37:32;23.70;64.60
758;DHT22;363;48.764;9.172;2023-05-25T10:39:59;23.50;65.50
758;DHT22;363;48.764;9.172;2023-05-25T10:42:25;23.60;66.40
758;DHT22;363;48.764;9.172;2023-05-25T10:44:53;24.20;67.30
758;DHT22;363;48.764;9.172;2023-05-25T10:47:18;23.90;66.30
758;DHT22;363;48.764;9.172;2023-05-25T10:49:58;23.80;65.00
758;DHT22;363;48.764;9.172;2023-05-25T10:52:26;24.40;65.20
758;DHT22;363;48.764;9.172;2023-05-25T10:54:55;23.80;65.80
758;DHT22;363;48.764;9.172;2023-05-25T10:57:22;24.10;66.90
758;DHT22;363;48.764;9.172;2023-05-25T11:00:03;23.90;67.40
758;DHT22;363;48.764;9.172;2023-05-25T11:02:49;22.90;67.60
758;DHT22;363;48.764;9.172;2023-05-25T11:18:56;24.50;65.70
758;DHT22;363;48.764;9.172;2023-05-25T11:23:52;25.10;66.00
758;DHT22;363;48.764;9.172;2023-05-25T11:26:29;24.20;65.90
758;DHT22;363;48.764;9.172;2023-05-25T11:28:56;24.00;66.20
758;DHT22;363;48.764;9.172;2023-05-25T11:31:28;24.60;67.50
758;DHT22;363;48.764;9.172;2023-05-25T11:33:56;23.70;66.80
758;DHT22;363;48.764;9.172;2023-05-25T11:36:23;24.10;67.50
758;DHT22;363;48.764;9.172;2023-05-25T11:38:52;23.70;67.40
758;DHT22;363;48.764;9.172;2023-05-25T11:41:21;24.10;67.80
758;DHT22;363;48.764;9.172;2023-05-25T11:43:50;24.40;69.00
758;DHT22;363;48.764;9.172;2023-05-25T11:46:19;23.90;67.60
758;DHT22;363;48.764;9.172;2023-05-25T11:48:52;23.70;67.80
758;DHT22;363;48.764;9.172;2023-05-25T11:51:20;23.30;68.30
758;DHT22;363;48.764;9.172;2023-05-25T11:53:46;23.60;69.60
758;DHT22;363;48.764;9.172;2023-05-25T11:56:12;23.30;68.90
758;DHT22;363;48.764;9.172;2023-05-25T11:58:38;23.20;70.00
758;DHT22;363;48.764;9.172;2023-05-25T12:03:41;23.00;69.40
758;DHT22;363;48.764;9.172;2023-05-25T12:06:07;23.40;69.50
758;DHT22;363;48.764;9.172;2023-05-25T12:08:36;23.50;68.90
758;DHT22;363;48.764;9.172;2023-05-25T12:11:02;23.80;69.10
758;DHT22;363;48.764;9.172;2023-05-25T12:13:29;23.80;69.50
758;DHT22;363;48.764;9.172;2023-05-25T12:15:55;23.60;69.10
758;DHT22;363;48.764;9.172;2023-05-25T12:18:26;23.90;69.20
758;DHT22;363;48.764;9.172;2023-05-25T12:20:53;23.90;69.00
758;DHT22;363;48.764;9.172;2023-05-25T12:23:19;23.60;68.30
758;DHT22;363;48.764;9.172;2023-05-25T12:25:44;23.70;68.00
758;DHT22;363;48.764;9.172;2023-05-25T12:28:14;24.00;68.30
758;DHT22;363;48.764;9.172;2023-05-25T12:30:40;24.20;68.20
758;DHT22;363;48.764;9.172;2023-05-25T12:33:06;23.50;67.70
758;DHT22;363;48.764;9.172;2023-05-25T12:35:48;23.90;69.30
758;DHT22;363;48.764;9.172;2023-05-25T12:38:18;23.40;68.80
758;DHT22;363;48.764;9.172;2023-05-25T12:40:45;23.20;69.10
758;DHT22;363;48.764;9.172;2023-05-25T12:43:11;23.70;69.70
758;DHT22;363;48.764;9.172;2023-05-25T12:45:43;23.50;69.60
758;DHT22;363;48.764;9.172;2023-05-25T12:48:09;23.30;69.00
758;DHT22;363;48.764;9.172;2023-05-25T12:50:35;23.30;69.50
758;DHT22;363;48.764;9.172;2023-05-25T12:53:03;23.70;69.10
758;DHT22;363;48.764;9.172;2023-05-25T12:55:30;23.50;68.50
758;DHT22;363;48.764;9.172;2023-05-25T12:58:04;23.40;68.50
758;DHT22;363;48.764;9.172;2023-05-25T13:00:33;23.30;69.00
758;DHT22;363;48.764;9.172;2023-05-25T13:02:59;23.40;69.80
758;DHT22;363;48.764;9.172;2023-05-25T13:05:26;22.90;70.40
758;DHT22;363;48.764;9.172;2023-05-25T13:07:53;23.40;70.50
758;DHT22;363;48.764;9.172;2023-05-25T13:10:19;23.30;69.40
758;DHT22;363;48.764;9.172;2023-05-25T13:12:46;23.00;69.90
758;DHT22;363;48.764;9.172;2023-05-25T13:15:17;23.90;69.90
758;DHT22;363;48.764;9.172;2023-05-25T13:17:45;23.50;68.60
758;DHT22;363;48.764;9.172;2023-05-25T13:20:11;23.50;69.20
758;DHT22;363;48.764;9.172;2023-05-25T13:22:38;23.80;69.20
758;DHT22;363;48.764;9.172;2023-05-25T13:25:06;23.90;68.70
758;DHT22;363;48.764;9.172;2023-05-25T13:27:32;23.40;69.30
758;DHT22;363;48.764;9.172;2023-05-25T13:29:57;23.50;69.90
758;DHT22;363;48.764;9.172;2023-05-25T13:32:23;23.80;69.40
758;DHT22;363;48.764;9.172;2023-05-25T13:34:49;24.60;70.50
758;DHT22;363;48.764;9.172;2023-05-25T13:37:18;23.20;69.30
758;DHT22;363;48.764;9.172;2023-05-25T13:39:43;23.90;70.50
758;DHT22;363;48.764;9.172;2023-05-25T13:42:09;23.30;69.60
758;DHT22;363;48.764;9.172;2023-05-25T13:44:34;23.10;69.40
758;DHT22;363;48.764;9.172;2023-05-25T13:47:00;23.50;71.40
758;DHT22;363;48.764;9.172;2023-05-25T13:49:25;23.10;71.10
758;DHT22;363;48.764;9.172;2023-05-25T13:51:51;23.60;70.80
758;DHT22;363;48.764;9.172;2023-05-25T13:54:16;23.70;70.60
758;DHT22;363;48.764;9.172;2023-05-25T13:56:43;24.10;70.00
758;DHT22;363;48.764;9.172;2023-05-25T13:59:08;24.00;68.90
758;DHT22;363;48.764;9.172;2023-05-25T14:01:34;24.40;69.50
758;DHT22;363;48.764;9.172;2023-05-25T14:04:00;23.70;69.20
758;DHT22;363;48.764;9.172;2023-05-25T14:06:26;23.50;68.80
758;DHT22;363;48.764;9.172;2023-05-25T14:08:51;24.30;70.70
758;DHT22;363;48.764;9.172;2023-05-25T14:11:17;23.50;70.10
758;DHT22;363;48.764;9.172;2023-05-25T14:13:42;23.40;69.50
758;DHT22;363;48.764;9.172;2023-05-25T14:16:08;23.60;69.80
758;DHT22;363;48.764;9.172;2023-05-25T14:18:34;23.40;69.80
758;DHT22;363;48.764;9.172;2023-05-25T14:20:59;23.40;70.30
758;DHT22;363;48.764;9.172;2023-05-25T14:23:25;23.70;71.00
758;DHT22;363;48.764;9.172;2023-05-25T14:25:50;23.20;71.10
758;DHT22;363;48.764;9.172;2023-05-25T14:28:16;23.60;70.80
758;DHT22;363;48.764;9.172;2023-05-25T14:30:41;23.40;69.80
758;DHT22;363;48.764;9.172;2023-05-25T14:33:07;23.30;69.30
758;DHT22;363;48.764;9.172;2023-05-25T14:35:38;23.50;70.10
758;DHT22;363;48.764;9.172;2023-05-25T14:38:04;23.30;70.10
758;DHT22;363;48.764;9.172;2023-05-25T14:40:29;23.30;69.50
758;DHT22;363;48.764;9.172;2023-05-25T14:42:55;23.40;69.30
758;DHT22;363;48.764;9.172;2023-05-25T14:45:21;23.50;69.50
758;DHT22;363;48.764;9.172;2023-05-25T14:47:46;23.50;69.80
758;DHT22;363;48.764;9.172;2023-05-25T14:50:12;23.90;69.60
758;DHT22;363;48.764;9.172;2023-05-25T14:52:37;23.70;69.10
758;DHT22;363;48.764;9.172;2023-05-25T14:55:03;23.70;68.90
758;DHT22;363;48.764;9.172;2023-05-25T14:57:29;23.60;68.50
758;DHT22;363;48.764;9.172;2023-05-25T14:59:54;24.80;70.70
758;DHT22;363;48.764;9.172;2023-05-25T15:02:20;23.80;69.90
758;DHT22;363;48.764;9.172;2023-05-25T15:04:46;23.20;69.70
758;DHT22;363;48.764;9.172;2023-05-25T15:07:12;23.60;72.00
758;DHT22;363;48.764;9.172;2023-05-25T15:09:38;23.00;70.90
758;DHT22;363;48.764;9.172;2023-05-25T15:12:05;23.00;70.70
758;DHT22;363;48.764;9.172;2023-05-25T15:14:32;23.20;70.80
758;DHT22;363;48.764;9.172;2023-05-25T15:16:58;23.40;71.00
758;DHT22;363;48.764;9.172;2023-05-25T15:19:24;23.90;70.40
758;DHT22;363;48.764;9.172;2023-05-25T15:21:49;24.10;69.40
758;DHT22;363;48.764;9.172;2023-05-25T15:24:16;24.00;69.00
758;DHT22;363;48.764;9.172;2023-05-25T15:26:42;23.80;69.50
758;DHT22;363;48.764;9.172;2023-05-25T15:29:08;23.50;69.20
758;DHT22;363;48.764;9.172;2023-05-25T15:31:33;23.60;70.10
758;DHT22;363;48.764;9.172;2023-05-25T15:33:59;23.50;69.20
758;DHT22;363;48.764;9.172;2023-05-25T15:36:25;23.50;69.60
758;DHT22;363;48.764;9.172;2023-05-25T15:38:51;23.50;68.90
758;DHT22;363;48.764;9.172;2023-05-25T15:41:16;23.70;69.20
758;DHT22;363;48.764;9.172;2023-05-25T15:43:52;23.30;68.80
758;DHT22;363;48.764;9.172;2023-05-25T15:46:28;23.30;69.70
758;DHT22;363;48.764;9.172;2023-05-25T15:48:54;23.40;70.90
758;DHT22;363;48.764;9.172;2023-05-25T15:51:20;23.10;70.10
758;DHT22;363;48.764;9.172;2023-05-25T15:53:46;23.40;70.80
758;DHT22;363;48.764;9.172;2023-05-25T15:56:11;22.90;71.10
758;DHT22;363;48.764;9.172;2023-05-25T15:58:37;22.80;70.60
758;DHT22;363;48.764;9.172;2023-05-25T16:01:03;22.80;71.20
758;DHT22;363;48.764;9.172;2023-05-25T16:03:28;22.80;71.10
758;DHT22;363;48.764;9.172;2023-05-25T16:05:54;22.90;71.40
758;DHT22;363;48.764;9.172;2023-05-25T16:08:20;22.80;71.30
758;DHT22;363;48.764;9.172;2023-05-25T16:10:46;23.40;72.60
758;DHT22;363;48.764;9.172;2023-05-25T16:13:12;22.90;70.80
758;DHT22;363;48.764;9.172;2023-05-25T16:15:37;22.90;71.40
758;DHT22;363;48.764;9.172;2023-05-25T16:18:03;22.90;71.60
758;DHT22;363;48.764;9.172;2023-05-25T16:20:28;22.90;71.40
758;DHT22;363;48.764;9.172;2023-05-25T16:22:54;23.30;71.10
758;DHT22;363;48.764;9.172;2023-05-25T16:25:19;22.80;70.80
758;DHT22;363;48.764;9.172;2023-05-25T16:27:45;22.80;71.10
758;DHT22;363;48.764;9.172;2023-05-25T16:30:11;22.80;71.60
758;DHT22;363;48.764;9.172;2023-05-25T16:32:36;22.70;71.40
758;DHT22;363;48.764;9.172;2023-05-25T16:35:02;22.70;71.30
758;DHT22;363;48.764;9.172;2023-05-25T16:37:28;22.60;70.90
758;DHT22;363;48.764;9.172;2023-05-25T16:39:53;23.00;71.70
758;DHT22;363;48.764;9.172;2023-05-25T16:42:19;22.80;72.30
758;DHT22;363;48.764;9.172;2023-05-25T16:44:44;22.80;73.00
758;DHT22;363;48.764;9.172;2023-05-25T16:47:10;23.20;73.00
758;DHT22;363;48.764;9.172;2023-05-25T16:49:35;22.60;71.80
758;DHT22;363;48.764;9.172;2023-05-25T16:52:01;22.70;71.30
758;DHT22;363;48.764;9.172;2023-05-25T16:54:27;22.60;71.40
758;DHT22;363;48.764;9.172;2023-05-25T16:56:53;22.80;72.20
758;DHT22;363;48.764;9.172;2023-05-25T16:59:18;22.60;72.30